createdAt,value
2022-10-18T00:02:23.882Z,45.13
2022-10-18T00:07:30.824Z,51.80
2022-10-18T00:12:39.361Z,41.40
2022-10-18T00:17:47.615Z,39.60
2022-10-18T00:23:12.127Z,42.50
2022-10-18T00:28:17.385Z,43.80
2022-10-18T00:33:24.911Z,50.77
2022-10-18T00:38:35.389Z,42.30
2022-10-18T00:49:50.883Z,43.10
2022-10-18T00:55:01.992Z,45.30
2022-10-18T01:00:26.483Z,42.53
2022-10-18T01:05:33.407Z,45.50
2022-10-18T01:11:21.942Z,36.60
2022-10-18T01:17:05.084Z,45.77
2022-10-18T01:22:31.956Z,43.10
2022-10-18T01:27:58.022Z,65.93
2022-10-18T01:33:15.026Z,76.50
2022-10-18T01:38:23.856Z,73.90
2022-10-18T01:43:50.632Z,70.77
2022-10-18T01:48:57.852Z,58.40
2022-10-18T01:54:03.499Z,54.37
2022-10-18T01:59:32.337Z,51.63
2022-10-18T02:05:04.843Z,53.07
2022-10-18T02:15:21.497Z,42.37
2022-10-18T02:20:49.147Z,43.87
2022-10-18T02:26:19.179Z,46.63
2022-10-18T02:31:31.157Z,38.47
2022-10-18T02:36:54.960Z,41.90
2022-10-18T02:42:06.374Z,39.67
2022-10-18T02:47:13.330Z,45.23
2022-10-18T02:52:20.313Z,42.17
2022-10-18T02:57:25.652Z,52.03
2022-10-18T03:02:31.010Z,52.63
2022-10-18T03:07:36.266Z,62.17
2022-10-18T03:12:41.498Z,64.33
2022-10-18T03:17:46.693Z,59.17
2022-10-18T03:22:53.104Z,54.30
2022-10-18T03:27:59.810Z,61.40
2022-10-18T03:33:05.947Z,48.50
2022-10-18T03:38:11.179Z,54.93
2022-10-18T03:43:16.412Z,47.87
2022-10-18T03:48:27.450Z,42.50
2022-10-18T03:53:32.699Z,54.07
2022-10-18T03:58:57.319Z,48.13
2022-10-18T04:04:04.310Z,44.20
2022-10-18T04:09:12.350Z,47.00
2022-10-18T04:14:21.893Z,42.50
2022-10-18T04:19:27.852Z,39.07
2022-10-18T04:24:33.136Z,47.80
2022-10-18T04:29:38.337Z,51.17
2022-10-18T04:35:04.209Z,61.57
2022-10-18T04:40:13.854Z,76.53
2022-10-18T04:45:25.933Z,73.67
2022-10-18T04:50:31.268Z,67.23
2022-10-18T04:55:40.657Z,62.93
2022-10-18T05:00:47.935Z,67.00
2022-10-18T05:06:08.282Z,70.63
2022-10-18T05:11:01.071Z,56.40
2022-10-18T05:16:09.178Z,56.70
2022-10-18T05:21:14.411Z,67.50
2022-10-18T05:26:19.584Z,61.27
2022-10-18T05:31:24.849Z,61.83
2022-10-18T05:36:30.213Z,55.10
2022-10-18T05:41:35.865Z,55.07
2022-10-18T05:46:42.061Z,57.27
2022-10-18T05:51:47.752Z,57.97
2022-10-18T05:56:55.106Z,64.77
2022-10-18T06:02:03.183Z,67.13
2022-10-18T06:07:13.715Z,61.97
2022-10-18T06:12:27.113Z,74.20
2022-10-18T06:17:48.629Z,60.73
2022-10-18T06:23:13.620Z,66.50
2022-10-18T06:28:21.411Z,60.87
2022-10-18T06:33:27.144Z,63.07
2022-10-18T06:38:32.594Z,58.83
2022-10-18T06:43:40.418Z,92.13
2022-10-18T06:48:47.214Z,71.63
2022-10-18T06:54:13.006Z,61.30
2022-10-18T06:59:31.302Z,68.00
2022-10-18T07:04:37.362Z,69.80
2022-10-18T07:09:42.803Z,64.33
2022-10-18T07:15:09.516Z,79.20
2022-10-18T07:20:20.051Z,67.13
2022-10-18T07:25:44.244Z,69.00
2022-10-18T07:30:49.549Z,62.83
2022-10-18T07:36:16.705Z,70.97
2022-10-18T07:41:25.862Z,69.50
2022-10-18T07:46:50.339Z,72.10
2022-10-18T07:52:05.490Z,74.00
2022-10-18T07:57:14.358Z,60.33
2022-10-18T08:02:26.588Z,46.43
2022-10-18T08:07:35.971Z,48.83
2022-10-18T08:12:41.876Z,52.17
2022-10-18T08:17:49.099Z,43.63
2022-10-18T08:23:13.445Z,41.43
2022-10-18T08:28:18.659Z,45.73
2022-10-18T08:33:23.951Z,50.27
2022-10-18T08:38:36.679Z,43.70
2022-10-18T08:44:07.205Z,50.23
2022-10-18T08:49:13.487Z,42.30
2022-10-18T08:54:31.258Z,55.00
2022-10-18T08:59:44.353Z,46.47
2022-10-18T09:05:14.590Z,47.60
2022-10-18T09:10:28.437Z,47.77
2022-10-18T09:15:48.353Z,53.60
2022-10-18T09:20:56.525Z,44.53
2022-10-18T09:26:05.754Z,41.80
2022-10-18T09:31:45.805Z,49.33
2022-10-18T09:36:53.438Z,63.93
2022-10-18T09:42:05.367Z,38.90
2022-10-18T09:47:25.571Z,46.17
2022-10-18T09:52:38.776Z,40.07
2022-10-18T09:57:49.789Z,34.53
2022-10-18T10:02:56.058Z,36.57
2022-10-18T10:08:04.123Z,37.80
2022-10-18T10:13:22.551Z,45.40
2022-10-18T10:18:30.729Z,41.40
2022-10-18T10:23:42.090Z,38.30
2022-10-18T10:29:17.304Z,44.53
2022-10-18T10:34:22.927Z,36.23
2022-10-18T10:39:28.502Z,33.77
2022-10-18T10:44:39.388Z,34.20
2022-10-18T10:49:47.121Z,39.00
2022-10-18T10:55:16.686Z,33.70
2022-10-18T11:00:11.108Z,34.37
2022-10-18T11:05:25.691Z,37.77
2022-10-18T11:10:34.492Z,35.77
2022-10-18T11:15:45.339Z,34.43
2022-10-18T11:21:08.295Z,37.43
2022-10-18T11:26:31.141Z,29.83
2022-10-18T11:32:02.294Z,18.67
2022-10-18T11:37:28.218Z,16.67
2022-10-18T11:42:40.375Z,15.80
2022-10-18T11:48:01.760Z,17.83
2022-10-18T11:53:23.963Z,20.27
2022-10-18T11:58:40.851Z,20.37
2022-10-18T12:03:59.679Z,22.23
2022-10-18T12:09:07.870Z,25.33
2022-10-18T12:14:28.142Z,18.03
2022-10-18T12:19:37.860Z,17.43
2022-10-18T12:24:48.023Z,20.63
2022-10-18T12:30:14.567Z,23.43
2022-10-18T12:35:30.319Z,17.83
2022-10-18T12:40:44.899Z,31.77
2022-10-18T12:45:58.143Z,32.20
2022-10-18T12:51:15.447Z,36.73
2022-10-18T12:56:50.739Z,73.60
2022-10-18T13:02:02.983Z,104.50
2022-10-18T13:07:13.738Z,32.23
2022-10-18T13:12:22.163Z,34.07
2022-10-18T13:23:33.924Z,21.03
2022-10-18T13:28:57.865Z,62.77
2022-10-18T13:34:32.860Z,48.60
2022-10-18T13:39:55.241Z,162.03
2022-10-18T13:45:32.741Z,38.60
2022-10-18T13:50:41.001Z,32.33
2022-10-18T13:55:56.220Z,53.97
2022-10-18T14:13:05.017Z,31.87
2022-10-18T14:18:22.327Z,21.30
2022-10-18T15:04:48.528Z,63.23
2022-10-18T15:10:29.980Z,56.10
2022-10-18T15:27:30.513Z,27.57
2022-10-18T15:32:41.016Z,23.67
2022-10-18T15:37:54.694Z,20.40
2022-10-18T15:43:10.367Z,24.90
2022-10-18T15:48:47.016Z,34.27
2022-10-18T15:53:55.684Z,37.67
2022-10-18T16:10:49.756Z,28.67
2022-10-18T16:15:59.643Z,26.97
2022-10-18T16:21:09.711Z,26.27
2022-10-18T16:26:20.909Z,29.73
2022-10-18T16:31:33.352Z,31.57
2022-10-18T16:37:04.958Z,27.13
2022-10-18T16:42:10.488Z,31.63
2022-10-18T16:47:36.202Z,31.03
2022-10-18T16:52:45.584Z,25.40
2022-10-18T16:58:10.444Z,38.23
2022-10-18T17:03:18.108Z,29.93
2022-10-18T17:08:43.185Z,27.70
2022-10-18T17:13:56.275Z,30.63
2022-10-18T17:19:21.788Z,38.33
2022-10-18T17:24:43.474Z,29.53
2022-10-18T17:29:52.454Z,34.33
2022-10-18T17:35:01.978Z,35.47
2022-10-18T17:40:20.921Z,41.77
2022-10-18T17:45:30.276Z,41.60
2022-10-18T17:50:55.873Z,33.37
2022-10-18T17:56:09.120Z,37.43
2022-10-18T18:01:19.086Z,39.60
2022-10-18T18:06:36.983Z,41.10
2022-10-18T18:11:56.043Z,37.00
2022-10-18T18:17:14.257Z,31.67
2022-10-18T18:22:32.327Z,33.40
2022-10-18T18:27:58.487Z,46.00
2022-10-18T18:33:08.768Z,74.17
2022-10-18T18:38:14.041Z,50.20
2022-10-18T18:43:23.020Z,43.53
2022-10-18T18:48:29.642Z,36.07
2022-10-18T18:53:35.210Z,36.00
2022-10-18T18:58:50.636Z,36.97
2022-10-18T19:04:02.798Z,42.10
2022-10-18T19:09:14.913Z,39.47
2022-10-18T19:14:25.251Z,31.20
2022-10-18T19:19:34.379Z,31.37
2022-10-18T19:24:40.275Z,33.70
2022-10-18T19:29:48.917Z,30.63
2022-10-18T19:34:54.307Z,30.17
2022-10-18T19:40:01.613Z,51.53
2022-10-18T19:45:09.508Z,21.47
2022-10-18T19:50:17.605Z,25.30
2022-10-18T19:55:25.256Z,22.47
2022-10-18T20:00:31.487Z,24.20
2022-10-18T20:05:36.759Z,27.73
2022-10-18T20:10:41.882Z,22.90
2022-10-18T20:15:51.435Z,24.50
2022-10-18T20:20:57.724Z,25.93
2022-10-18T20:26:06.160Z,24.17
2022-10-18T20:31:19.386Z,24.20
2022-10-18T20:36:27.015Z,25.90
2022-10-18T20:41:34.867Z,29.10
2022-10-18T20:46:42.462Z,19.93
2022-10-18T20:51:48.047Z,24.20
2022-10-18T20:56:53.201Z,17.40
2022-10-18T21:01:58.474Z,16.67
2022-10-18T21:07:06.453Z,18.13
2022-10-18T21:12:14.453Z,18.17
2022-10-18T21:17:21.185Z,24.03
2022-10-18T21:22:26.515Z,21.87
2022-10-18T21:27:31.829Z,22.93
2022-10-18T21:32:38.085Z,22.47
2022-10-18T21:37:43.262Z,25.97
2022-10-18T21:42:50.317Z,20.70
2022-10-18T21:47:57.031Z,22.50
2022-10-18T21:53:02.301Z,33.80
2022-10-18T21:58:09.204Z,17.67
2022-10-18T22:03:24.894Z,17.47
2022-10-18T22:08:33.725Z,27.83
2022-10-18T22:13:43.102Z,21.00
2022-10-18T22:18:50.005Z,15.40
2022-10-18T22:24:14.765Z,13.27
2022-10-18T22:35:24.041Z,19.37
2022-10-18T22:40:39.424Z,15.70
2022-10-18T22:45:49.034Z,17.47
2022-10-18T22:50:55.607Z,25.27
2022-10-18T22:56:04.487Z,27.57
2022-10-18T23:01:15.168Z,25.53
2022-10-18T23:06:31.631Z,16.03
2022-10-18T23:11:38.151Z,19.27
2022-10-18T23:16:44.874Z,19.33
2022-10-18T23:21:50.123Z,20.53
2022-10-18T23:26:57.488Z,16.70
2022-10-18T23:32:03.362Z,15.40
2022-10-18T23:37:10.195Z,22.50
2022-10-18T23:42:15.345Z,13.73
2022-10-18T23:47:22.223Z,14.90
2022-10-18T23:52:27.476Z,11.03
2022-10-18T23:57:32.829Z,12.80
